Time;durP1;ratioP1;P1;durP2;ratioP2;P2;SDS_P1;SDS_P2;PMS_P1;PMS_P2;Temp;Humidity;BMP_temperature;BMP_pressure;BME280_temperature;BME280_humidity;BME280_pressure;Samples;Min_cycle;Max_cycle;Signal;HPM_P1;HPM_P2
2022/11/14 04:00:26;;;;;;;95.95;38.33;;;6.20;99.90;;;;;;6116349;23;21089;-80
2022/11/14 04:02:54;;;;;;;94.30;38.05;;;6.20;99.90;;;;;;6180795;23;20101;-79
2022/11/14 04:05:20;;;;;;;87.45;37.65;;;6.10;99.90;;;;;;6131231;23;20041;-79
2022/11/14 04:07:45;;;;;;;93.05;38.75;;;6.10;99.90;;;;;;6156812;23;20025;-80
2022/11/14 04:10:11;;;;;;;94.28;37.65;;;6.10;99.90;;;;;;6132816;23;20021;-79
2022/11/14 04:12:37;;;;;;;90.22;37.80;;;6.10;99.90;;;;;;6126400;23;20160;-80
2022/11/14 04:15:03;;;;;;;99.65;39.42;;;6.10;99.90;;;;;;6127000;23;20018;-79
2022/11/14 04:17:29;;;;;;;93.18;39.28;;;6.10;99.90;;;;;;6126271;23;20018;-78
2022/11/14 04:19:54;;;;;;;96.70;40.30;;;6.00;99.90;;;;;;6126518;23;20343;-78
2022/11/14 04:22:20;;;;;;;97.97;39.03;;;6.00;99.90;;;;;;6128146;23;20360;-80
2022/11/14 04:24:45;;;;;;;97.18;39.28;;;6.00;99.90;;;;;;6126816;23;20436;-78
2022/11/14 04:27:11;;;;;;;94.53;39.35;;;6.00;99.90;;;;;;6126233;23;20022;-78
2022/11/14 04:29:37;;;;;;;97.03;38.63;;;6.00;99.90;;;;;;6128435;23;20017;-79
2022/11/14 04:32:02;;;;;;;94.25;40.40;;;6.00;99.90;;;;;;6126242;23;20314;-78
2022/11/14 04:34:28;;;;;;;96.22;39.83;;;6.10;99.90;;;;;;6126095;23;20014;-79
2022/11/14 04:36:53;;;;;;;99.53;40.13;;;6.00;99.90;;;;;;6125802;23;20109;-77
2022/11/14 04:39:19;;;;;;;97.40;40.45;;;6.00;99.90;;;;;;6126383;23;20336;-79
2022/11/14 04:41:45;;;;;;;95.68;40.50;;;6.00;99.90;;;;;;6127537;23;20021;-79
2022/11/14 04:44:10;;;;;;;102.20;43.40;;;6.00;99.90;;;;;;6126232;23;20062;-79
2022/11/14 04:46:36;;;;;;;105.88;43.20;;;6.00;99.90;;;;;;6126021;23;20321;-78
2022/11/14 04:49:01;;;;;;;96.10;40.28;;;6.00;99.90;;;;;;6125929;23;20093;-79
2022/11/14 04:51:27;;;;;;;109.55;44.53;;;6.00;99.90;;;;;;6127947;23;20025;-79
2022/11/14 04:53:53;;;;;;;98.45;41.92;;;6.00;99.90;;;;;;6126135;23;20042;-79
2022/11/14 04:56:21;;;;;;;104.53;42.30;;;6.00;99.90;;;;;;6126151;23;20017;-79
2022/11/14 04:58:48;;;;;;;108.35;43.13;;;6.00;99.90;;;;;;6127797;23;20022;-80
2022/11/14 05:01:15;;;;;;;105.13;43.72;;;6.00;99.90;;;;;;6125579;23;20014;-80
2022/11/14 05:03:40;;;;;;;104.28;44.45;;;5.90;99.90;;;;;;6127506;23;20014;-78
2022/11/14 05:06:06;;;;;;;105.93;43.25;;;6.00;99.90;;;;;;6125676;23;20014;-78
2022/11/14 05:08:33;;;;;;;108.47;42.90;;;6.00;99.90;;;;;;6125839;23;20053;-80
2022/11/14 05:10:58;;;;;;;104.32;43.63;;;5.90;99.90;;;;;;6127587;23;20081;-79
2022/11/14 05:13:24;;;;;;;104.53;43.10;;;5.90;99.90;;;;;;6125797;23;20403;-78
2022/11/14 05:15:50;;;;;;;106.13;42.13;;;5.90;99.90;;;;;;6125874;23;20045;-77
2022/11/14 05:18:15;;;;;;;98.30;40.97;;;5.90;99.90;;;;;;6125725;23;20057;-79
2022/11/14 05:20:41;;;;;;;101.72;41.78;;;5.90;99.90;;;;;;6127626;23;20021;-79
2022/11/14 05:23:15;;;;;;;104.60;42.05;;;5.90;99.90;;;;;;6125593;23;20032;-79
2022/11/14 05:25:40;;;;;;;103.85;42.90;;;5.90;99.90;;;;;;6125754;23;20014;-79
2022/11/14 05:28:06;;;;;;;103.75;41.70;;;5.90;99.90;;;;;;6125517;23;20495;-79
2022/11/14 05:30:32;;;;;;;97.07;41.03;;;5.90;99.90;;;;;;6125456;23;20025;-78
2022/11/14 05:32:57;;;;;;;95.88;38.13;;;5.90;99.90;;;;;;6125295;23;20352;-78
2022/11/14 05:35:23;;;;;;;98.80;40.50;;;5.90;99.90;;;;;;6127002;23;20021;-77
2022/11/14 05:37:49;;;;;;;94.72;39.97;;;5.90;99.90;;;;;;6125377;23;20116;-81
2022/11/14 05:40:15;;;;;;;101.82;41.03;;;5.90;99.90;;;;;;6127025;23;20115;-77
2022/11/14 05:42:41;;;;;;;101.45;40.58;;;5.90;99.90;;;;;;6127416;23;20052;-79
2022/11/14 05:45:07;;;;;;;96.38;39.53;;;5.90;99.90;;;;;;6125358;23;20018;-80
2022/11/14 05:47:33;;;;;;;100.50;39.92;;;5.90;99.90;;;;;;6126937;23;20467;-79
2022/11/14 05:49:59;;;;;;;103.60;40.97;;;5.90;99.90;;;;;;6125229;23;20018;-79
2022/11/14 05:52:24;;;;;;;101.00;40.33;;;5.90;99.90;;;;;;6125091;23;20018;-79
2022/11/14 05:54:50;;;;;;;103.78;42.22;;;5.90;99.90;;;;;;6125316;23;20113;-80
2022/11/14 05:57:15;;;;;;;96.35;38.75;;;5.90;99.90;;;;;;6125323;23;20064;-79
2022/11/14 05:59:41;;;;;;;96.40;39.28;;;5.90;99.90;;;;;;6125557;23;20014;-78
2022/11/14 06:02:07;;;;;;;98.00;40.22;;;5.90;99.90;;;;;;6125227;23;20017;-79
2022/11/14 06:04:32;;;;;;;98.90;39.20;;;5.90;99.90;;;;;;6125564;23;20006;-80
2022/11/14 06:06:58;;;;;;;97.78;40.17;;;5.90;99.90;;;;;;6126965;23;20505;-77
2022/11/14 06:09:23;;;;;;;92.43;37.92;;;5.90;99.90;;;;;;6101236;23;20064;-79
2022/11/14 06:11:52;;;;;;;93.57;38.05;;;5.90;99.90;;;;;;6127091;23;20033;-77
2022/11/14 06:14:18;;;;;;;96.80;39.92;;;5.90;99.90;;;;;;6125488;23;20045;-79
2022/11/14 06:16:43;;;;;;;98.35;40.03;;;5.80;99.90;;;;;;6101391;23;20009;-78
2022/11/14 06:19:09;;;;;;;99.00;40.03;;;5.80;99.90;;;;;;6125177;23;20006;-80
2022/11/14 06:21:34;;;;;;;99.80;39.50;;;5.80;99.90;;;;;;6125588;23;20343;-77
2022/11/14 06:24:00;;;;;;;97.07;39.75;;;5.80;99.90;;;;;;6125390;23;20014;-79
2022/11/14 06:26:31;;;;;;;96.78;39.35;;;5.90;99.90;;;;;;6125500;23;20017;-79
2022/11/14 06:28:57;;;;;;;92.20;38.42;;;5.80;99.90;;;;;;6125386;23;20014;-79
2022/11/14 06:31:24;;;;;;;86.30;37.20;;;5.80;99.90;;;;;;6124979;23;20018;-79
2022/11/14 06:33:50;;;;;;;91.97;38.50;;;5.80;99.90;;;;;;6125152;23;20364;-78
2022/11/14 06:36:16;;;;;;;99.00;38.67;;;5.80;99.90;;;;;;6124821;23;20025;-77
2022/11/14 06:38:42;;;;;;;93.07;37.70;;;5.80;99.90;;;;;;6124505;23;20022;-77
2022/11/14 06:41:20;;;;;;;97.07;39.13;;;5.80;99.90;;;;;;6126841;23;20025;-78
2022/11/14 06:43:47;;;;;;;96.90;39.35;;;5.80;99.90;;;;;;6124802;23;20033;-78
2022/11/14 06:46:16;;;;;;;96.70;40.95;;;5.80;99.90;;;;;;6124707;23;20137;-80
2022/11/14 06:48:43;;;;;;;99.32;40.17;;;5.80;99.90;;;;;;6124547;23;20020;-77
2022/11/14 06:51:10;;;;;;;99.82;40.55;;;5.80;99.90;;;;;;6124439;23;20451;-76
2022/11/14 06:53:36;;;;;;;93.78;39.63;;;5.80;99.90;;;;;;6124711;23;20097;-78
2022/11/14 06:56:04;;;;;;;99.18;40.35;;;5.80;99.90;;;;;;6124270;23;20021;-79
2022/11/14 06:58:33;;;;;;;94.15;38.85;;;5.80;99.90;;;;;;6124422;23;20066;-78
2022/11/14 07:01:09;;;;;;;94.18;39.65;;;5.80;99.90;;;;;;6124386;23;20014;-79
2022/11/14 07:03:34;;;;;;;;;;;5.80;99.90;;;;;;6124818;23;20014;-78
2022/11/14 07:06:00;;;;;;;;;;;5.80;99.90;;;;;;6125713;23;19920;-79
2022/11/14 07:08:26;;;;;;;90.63;36.15;;;5.80;99.90;;;;;;6124791;23;19945;-78
2022/11/14 07:10:52;;;;;;;101.97;39.30;;;5.80;99.90;;;;;;6124567;23;20022;-79
2022/11/14 07:13:18;;;;;;;106.65;41.17;;;5.80;99.90;;;;;;6124882;23;20403;-79
2022/11/14 07:15:53;;;;;;;97.38;38.97;;;5.80;99.90;;;;;;6124805;23;20046;-76
2022/11/14 07:18:19;;;;;;;;;;;5.80;99.90;;;;;;6125633;23;20017;-78
2022/11/14 07:20:45;;;;;;;105.95;40.78;;;5.80;99.90;;;;;;6124957;23;19916;-79
2022/11/14 07:23:11;;;;;;;94.85;37.90;;;5.80;99.90;;;;;;6124766;23;20012;-77
2022/11/14 07:25:37;;;;;;;97.70;38.92;;;5.80;99.90;;;;;;6125021;23;20508;-80
2022/11/14 07:28:03;;;;;;;96.15;38.95;;;5.90;99.90;;;;;;6125001;23;20017;-78
2022/11/14 07:30:28;;;;;;;112.20;41.22;;;5.80;99.90;;;;;;6125072;23;20065;-79
2022/11/14 07:32:57;;;;;;;100.35;40.55;;;5.80;99.90;;;;;;6126190;23;20017;-79
2022/11/14 07:35:23;;;;;;;103.25;39.33;;;5.80;99.90;;;;;;6102564;23;20403;-78
2022/11/14 07:37:49;;;;;;;98.65;41.10;;;5.80;99.90;;;;;;6126998;23;20314;-79
2022/11/14 07:40:16;;;;;;;104.22;39.92;;;5.80;99.90;;;;;;6103095;23;20010;-79
2022/11/14 07:42:41;;;;;;;101.38;40.70;;;5.80;99.90;;;;;;6102232;23;20432;-80
2022/11/14 07:45:08;;;;;;;100.63;40.15;;;5.80;99.90;;;;;;6126794;23;20024;-79
2022/11/14 07:47:33;;;;;;;101.30;38.95;;;5.80;99.90;;;;;;6126939;23;20014;-78
2022/11/14 07:49:59;;;;;;;105.15;41.22;;;5.80;99.90;;;;;;6126889;23;20388;-77
2022/11/14 07:52:25;;;;;;;101.72;39.88;;;5.80;99.90;;;;;;6126563;23;20018;-79
2022/11/14 07:54:50;;;;;;;98.10;37.58;;;5.80;99.90;;;;;;6126768;23;20009;-79
2022/11/14 07:57:16;;;;;;;92.60;38.00;;;5.80;99.90;;;;;;6128545;23;20045;-80
2022/11/14 07:59:42;;;;;;;101.50;38.95;;;5.80;99.90;;;;;;6127004;23;20141;-78
2022/11/14 08:02:14;;;;;;;98.78;39.65;;;5.80;99.90;;;;;;6150758;23;20029;-78
2022/11/14 08:04:41;;;;;;;97.97;38.63;;;5.80;99.90;;;;;;6127309;23;20328;-78
2022/11/14 08:07:07;;;;;;;97.30;38.90;;;5.80;99.90;;;;;;6126749;23;20387;-79
2022/11/14 08:09:32;;;;;;;97.68;37.83;;;5.80;99.90;;;;;;6126899;23;20313;-79
2022/11/14 08:11:58;;;;;;;92.97;37.35;;;5.80;99.90;;;;;;6126400;23;20056;-77
2022/11/14 08:14:24;;;;;;;100.93;38.70;;;5.80;99.90;;;;;;6126420;23;20097;-80
2022/11/14 08:16:49;;;;;;;102.57;39.75;;;5.80;99.90;;;;;;6126399;23;20403;-78
2022/11/14 08:19:15;;;;;;;92.68;38.25;;;5.80;99.90;;;;;;6126230;23;20018;-80
2022/11/14 08:21:41;;;;;;;99.70;38.53;;;5.90;99.90;;;;;;6128870;23;20085;-77
2022/11/14 08:24:07;;;;;;;101.30;38.92;;;5.90;99.90;;;;;;6126237;23;20113;-80
2022/11/14 08:26:33;;;;;;;98.68;37.63;;;5.90;99.90;;;;;;6126221;23;20017;-78
2022/11/14 08:28:59;;;;;;;99.15;38.90;;;5.90;99.90;;;;;;6126375;23;20021;-79
2022/11/14 08:31:25;;;;;;;98.30;38.28;;;6.00;99.90;;;;;;6126744;23;20025;-79
2022/11/14 08:33:51;;;;;;;89.38;38.30;;;6.00;99.90;;;;;;6128409;23;20014;-78
2022/11/14 08:36:17;;;;;;;92.85;37.83;;;6.00;99.90;;;;;;6126418;23;20037;-78
2022/11/14 08:38:43;;;;;;;95.25;38.13;;;6.00;99.90;;;;;;6126341;23;20384;-79
2022/11/14 08:41:08;;;;;;;92.90;36.63;;;6.00;99.90;;;;;;6126396;23;20343;-78
2022/11/14 08:43:34;;;;;;;94.20;37.53;;;6.10;99.90;;;;;;6124199;23;20392;-79
2022/11/14 08:46:02;;;;;;;92.65;35.47;;;6.10;99.90;;;;;;6099316;23;20432;-78
2022/11/14 08:48:27;;;;;;;95.35;38.40;;;6.10;99.90;;;;;;6125249;23;20028;-77
2022/11/14 08:50:53;;;;;;;98.03;38.42;;;6.10;99.90;;;;;;6123335;23;20049;-76
2022/11/14 08:53:19;;;;;;;94.75;37.72;;;6.10;99.90;;;;;;6123385;23;20025;-79
2022/11/14 08:55:46;;;;;;;98.60;36.95;;;6.10;99.90;;;;;;6125133;23;20029;-79
2022/11/14 08:58:11;;;;;;;92.90;37.45;;;6.20;99.90;;;;;;6123796;23;20018;-78
2022/11/14 09:00:37;;;;;;;96.85;38.78;;;6.10;99.90;;;;;;6127198;23;20435;-77
2022/11/14 09:03:14;;;;;;;92.50;37.35;;;6.20;99.90;;;;;;6125821;23;20013;-77
2022/11/14 09:05:40;;;;;;;93.25;38.42;;;6.20;99.90;;;;;;6125634;23;20064;-77
2022/11/14 09:08:06;;;;;;;91.97;37.60;;;6.20;99.90;;;;;;6125870;23;20344;-77
2022/11/14 09:10:33;;;;;;;92.85;38.28;;;6.30;99.90;;;;;;6124727;23;20018;-78
2022/11/14 09:13:00;;;;;;;85.07;36.47;;;6.30;99.90;;;;;;6127354;23;20017;-76
2022/11/14 09:15:29;;;;;;;92.50;37.28;;;6.30;99.90;;;;;;6101389;23;20017;-77
2022/11/14 09:17:55;;;;;;;90.38;37.63;;;6.40;99.90;;;;;;6126674;23;20016;-77
2022/11/14 09:20:23;;;;;;;84.07;36.63;;;6.50;99.90;;;;;;6125371;23;20006;-78
2022/11/14 09:22:52;;;;;;;83.30;36.42;;;6.50;99.90;;;;;;6125380;23;20459;-76
2022/11/14 09:25:18;;;;;;;82.55;36.40;;;6.60;99.90;;;;;;6125415;23;20014;-77
2022/11/14 09:27:44;;;;;;;82.68;35.50;;;6.60;99.90;;;;;;6125237;23;20037;-79
2022/11/14 09:30:10;;;;;;;81.13;35.22;;;6.70;99.90;;;;;;6125284;23;20028;-78
2022/11/14 09:32:36;;;;;;;79.60;34.55;;;6.70;99.90;;;;;;6100568;23;20073;-77
2022/11/14 09:35:01;;;;;;;85.60;35.67;;;6.80;99.90;;;;;;6126277;23;20018;-79
2022/11/14 09:37:27;;;;;;;78.35;33.83;;;6.90;99.90;;;;;;6126788;23;20093;-79
2022/11/14 09:39:53;;;;;;;71.10;32.85;;;7.00;99.90;;;;;;6125427;23;20009;-79
2022/11/14 09:42:43;;;;;;;78.82;34.92;;;7.10;99.90;;;;;;6125017;23;20425;-78
2022/11/14 09:45:12;;;;;;;74.70;34.03;;;7.20;99.90;;;;;;6125110;23;20037;-78
2022/11/14 09:47:38;;;;;;;75.00;34.60;;;7.30;99.90;;;;;;6125097;23;20021;-78
2022/11/14 09:50:24;;;;;;;74.88;33.45;;;7.40;99.90;;;;;;6125136;23;20028;-76
2022/11/14 09:52:56;;;;;;;72.05;32.88;;;7.50;99.90;;;;;;6100561;23;20028;-76
2022/11/14 09:55:28;;;;;;;67.30;31.92;;;7.60;99.90;;;;;;6124886;23;20072;-78
2022/11/14 09:57:55;;;;;;;65.78;31.50;;;7.70;99.90;;;;;;6124926;23;20072;-76
2022/11/14 10:00:23;;;;;;;66.15;31.90;;;7.70;99.90;;;;;;6124685;23;20018;-78
2022/11/14 10:03:26;;;;;;;70.20;31.52;;;7.80;99.90;;;;;;6125057;23;20085;-78
2022/11/14 10:06:44;;;;;;;65.68;32.00;;;7.90;99.90;;;;;;6124892;23;20045;-78
2022/11/14 10:09:28;;;;;;;64.20;31.20;;;8.00;99.90;;;;;;5985653;23;20016;-77
2022/11/14 10:12:06;;;;;;;65.05;29.83;;;8.10;99.90;;;;;;6124711;23;20014;-77
2022/11/14 10:14:59;;;;;;;63.70;30.38;;;8.20;99.90;;;;;;6124889;23;20163;-78
2022/11/14 10:17:49;;;;;;;62.40;29.67;;;8.30;99.90;;;;;;6100183;23;20022;-77
2022/11/14 10:20:33;;;;;;;63.40;29.73;;;8.30;99.90;;;;;;6124740;23;20014;-76
2022/11/14 10:23:14;;;;;;;59.00;29.08;;;8.40;99.90;;;;;;6124664;23;20153;-77
2022/11/14 10:26:01;;;;;;;59.50;30.02;;;8.60;99.90;;;;;;6124768;23;20036;-76
2022/11/14 10:28:32;;;;;;;58.70;29.17;;;8.70;99.90;;;;;;6125101;23;20499;-77
2022/11/14 10:31:19;;;;;;;60.20;27.70;;;8.70;99.90;;;;;;6127813;23;20133;-77
2022/11/14 10:34:04;;;;;;;52.35;26.38;;;8.80;99.90;;;;;;6124812;23;20021;-78
2022/11/14 10:37:02;;;;;;;54.55;26.55;;;8.90;99.90;;;;;;6124892;23;20069;-78
2022/11/14 10:39:42;;;;;;;55.08;26.50;;;9.00;99.90;;;;;;6125085;23;20026;-77
2022/11/14 10:42:16;;;;;;;52.70;25.92;;;9.10;99.90;;;;;;6126146;23;20039;-77
2022/11/14 10:45:03;;;;;;;52.22;25.38;;;9.20;99.90;;;;;;6125036;23;20432;-78
2022/11/14 10:47:39;;;;;;;48.60;24.80;;;9.30;99.90;;;;;;6124719;23;20025;-79
2022/11/14 10:50:18;;;;;;;48.90;24.77;;;9.40;99.90;;;;;;6126328;23;20073;-78
2022/11/14 10:52:45;;;;;;;52.75;26.00;;;9.50;99.90;;;;;;6124625;23;20021;-78
2022/11/14 10:55:17;;;;;;;54.00;26.63;;;9.70;99.90;;;;;;6124521;23;20049;-78
2022/11/14 10:57:45;;;;;;;51.35;26.92;;;9.70;99.90;;;;;;6124504;23;20025;-79
2022/11/14 11:00:18;;;;;;;49.60;26.30;;;9.80;99.90;;;;;;6100393;23;20068;-78
2022/11/14 11:02:54;;;;;;;51.05;26.05;;;10.00;99.90;;;;;;6071384;23;20111;-78
2022/11/14 11:05:26;;;;;;;51.30;25.88;;;10.00;99.90;;;;;;6095475;23;20352;-79
2022/11/14 11:13:30;;;;;;;48.33;25.70;;;10.40;99.90;;;;;;6099178;23;20025;-78
2022/11/14 11:15:59;;;;;;;50.30;25.83;;;10.30;99.90;;;;;;6099564;23;20042;-78
2022/11/14 11:18:30;;;;;;;53.22;26.60;;;10.40;99.90;;;;;;6073622;23;20018;-77
2022/11/14 11:21:08;;;;;;;49.20;25.10;;;10.50;99.90;;;;;;6073243;23;20318;-78
2022/11/14 11:23:35;;;;;;;50.72;26.17;;;10.50;99.90;;;;;;6072843;23;20010;-78
2022/11/14 11:26:07;;;;;;;48.53;25.80;;;10.60;99.90;;;;;;6097874;23;20425;-79
2022/11/14 11:28:35;;;;;;;49.45;26.45;;;10.70;99.90;;;;;;6073568;23;20050;-78
2022/11/14 11:31:07;;;;;;;48.65;26.23;;;10.70;99.90;;;;;;6097133;23;20010;-78
2022/11/14 11:33:34;;;;;;;49.28;26.25;;;10.90;99.90;;;;;;6097442;23;20014;-77
2022/11/14 11:36:13;;;;;;;49.50;25.70;;;11.00;99.90;;;;;;6097104;23;20018;-77
2022/11/14 11:38:40;;;;;;;49.97;26.60;;;11.00;99.90;;;;;;6073193;23;20022;-79
2022/11/14 11:41:22;;;;;;;51.58;26.60;;;10.90;99.90;;;;;;6097052;23;20014;-80
2022/11/14 11:43:59;;;;;;;48.22;25.48;;;11.00;99.90;;;;;;6099483;23;20018;-80
2022/11/14 11:47:02;;;;;;;51.25;28.15;;;11.00;99.90;;;;;;6050682;23;20014;-79
2022/11/14 11:49:42;;;;;;;52.30;27.30;;;11.10;99.90;;;;;;5927346;24;20025;-80
2022/11/14 11:52:42;;;;;;;51.83;26.58;;;11.20;99.90;;;;;;5903301;24;20398;-84
2022/11/14 11:55:07;;;;;;;51.13;26.58;;;11.30;99.90;;;;;;5903154;24;20028;-83
2022/11/14 11:57:44;;;;;;;49.13;25.45;;;11.30;99.90;;;;;;5926304;24;20016;-83
2022/11/14 12:00:13;;;;;;;46.97;25.30;;;11.30;99.90;;;;;;5927007;24;20017;-82
2022/11/14 12:02:43;;;;;;;47.15;25.38;;;11.20;99.90;;;;;;5980650;24;20025;-81
2022/11/14 12:05:14;;;;;;;46.03;24.92;;;11.20;99.90;;;;;;5958720;24;20502;-80
2022/11/14 12:07:53;;;;;;;46.45;24.33;;;11.20;99.90;;;;;;5982673;24;20020;-80
2022/11/14 12:10:25;;;;;;;48.97;25.55;;;11.20;99.90;;;;;;5959615;24;20020;-79
2022/11/14 12:13:12;;;;;;;51.45;26.20;;;11.20;99.90;;;;;;5991935;23;20018;-80
2022/11/14 12:16:03;;;;;;;48.85;25.95;;;11.30;99.90;;;;;;6102223;23;20029;-82
2022/11/14 12:18:42;;;;;;;42.38;24.15;;;11.30;99.90;;;;;;6126573;23;20017;-80
2022/11/14 12:21:31;;;;;;;45.25;25.80;;;11.30;99.90;;;;;;6126643;23;20029;-81
2022/11/14 12:24:02;;;;;;;43.63;24.33;;;11.30;99.90;;;;;;6127686;23;20071;-81
2022/11/14 12:26:34;;;;;;;44.47;24.92;;;11.30;99.90;;;;;;6126848;23;20049;-82
2022/11/14 12:29:20;;;;;;;43.63;24.85;;;11.40;99.90;;;;;;6126672;23;20018;-80
2022/11/14 12:31:46;;;;;;;41.28;23.70;;;11.40;99.90;;;;;;6126756;23;20022;-81
2022/11/14 12:34:28;;;;;;;45.38;24.52;;;11.50;99.90;;;;;;6126707;23;20116;-81
2022/11/14 12:36:54;;;;;;;43.47;23.85;;;11.50;99.90;;;;;;6126986;23;20014;-80
2022/11/14 12:39:26;;;;;;;42.55;24.55;;;11.50;99.90;;;;;;6101865;23;20064;-82
2022/11/14 12:42:04;;;;;;;40.20;22.30;;;11.60;99.90;;;;;;6150261;23;20080;-81
2022/11/14 12:44:31;;;;;;;40.63;22.98;;;11.60;99.90;;;;;;6101503;23;20428;-80
2022/11/14 12:47:17;;;;;;;37.60;22.20;;;11.70;99.90;;;;;;6127315;23;20096;-83
2022/11/14 12:49:46;;;;;;;;;;;11.80;99.90;;;;;;6126167;23;20318;-79
2022/11/14 12:52:39;;;;;;;37.50;20.88;;;11.80;99.90;;;;;;6127018;23;19913;-79
2022/11/14 12:55:45;;;;;;;37.30;21.50;;;11.80;99.90;;;;;;6126091;23;20014;-82
2022/11/14 12:58:42;;;;;;;37.08;20.33;;;11.90;99.90;;;;;;6084176;23;20344;-78
2022/11/14 13:01:26;;;;;;;35.33;20.30;;;12.00;99.90;;;;;;6125476;23;20064;-81
2022/11/14 13:04:13;;;;;;;37.42;21.15;;;12.00;99.90;;;;;;6101179;23;20050;-80
2022/11/14 13:06:46;;;;;;;36.13;21.05;;;12.00;99.90;;;;;;6125556;23;20025;-78
2022/11/14 13:09:35;;;;;;;40.50;21.95;;;12.00;99.90;;;;;;6125499;23;20047;-78
2022/11/14 13:24:02;;;;;;;36.13;20.67;;;12.00;99.90;;;;;;6125762;23;20021;-80
2022/11/14 13:26:31;;;;;;;34.97;20.63;;;12.00;99.90;;;;;;6126927;23;20329;-80
2022/11/14 13:28:57;;;;;;;33.45;19.00;;;12.10;99.90;;;;;;6125282;23;20017;-80
2022/11/14 13:31:37;;;;;;;32.63;18.45;;;12.10;99.90;;;;;;6126744;23;20025;-80
2022/11/14 13:34:29;;;;;;;29.92;17.98;;;12.10;99.90;;;;;;6125400;23;20018;-80
2022/11/14 13:37:13;;;;;;;31.92;17.58;;;12.10;99.90;;;;;;6061463;23;20069;-80
2022/11/14 13:40:01;;;;;;;28.48;17.85;;;12.10;99.90;;;;;;6126114;23;20014;-80
2022/11/14 13:43:03;;;;;;;30.08;18.50;;;12.10;99.90;;;;;;6125248;23;20010;-79
2022/11/14 13:46:01;;;;;;;29.33;17.55;;;12.10;99.90;;;;;;6102120;23;20014;-80
2022/11/14 13:49:04;;;;;;;29.65;18.50;;;12.00;99.90;;;;;;6127019;23;20060;-81
2022/11/14 13:51:31;;;;;;;32.75;18.40;;;11.90;99.90;;;;;;6100569;23;20029;-79
2022/11/14 13:53:57;;;;;;;29.52;17.70;;;11.80;99.90;;;;;;6125084;23;20018;-80
2022/11/14 13:56:43;;;;;;;30.50;18.15;;;11.70;99.90;;;;;;6124889;23;20014;-79
2022/11/14 13:59:33;;;;;;;31.70;18.50;;;11.70;99.90;;;;;;6124381;23;20025;-80
2022/11/14 14:02:39;;;;;;;30.45;18.33;;;11.70;99.90;;;;;;6099394;23;20436;-78
2022/11/14 14:05:29;;;;;;;29.13;17.55;;;11.70;99.90;;;;;;6093610;23;20029;-80
2022/11/14 14:08:13;;;;;;;28.33;16.70;;;12.00;99.90;;;;;;6125818;23;20036;-80
2022/11/14 14:11:02;;;;;;;28.20;16.77;;;12.20;99.90;;;;;;6125739;23;20321;-79
2022/11/14 14:13:48;;;;;;;27.17;16.90;;;12.30;99.90;;;;;;6124922;23;20021;-79
2022/11/14 14:16:39;;;;;;;26.58;16.90;;;12.40;99.90;;;;;;6124892;23;20033;-80
2022/11/14 14:19:25;;;;;;;27.55;16.45;;;12.20;99.90;;;;;;6124737;23;20086;-79
2022/11/14 14:22:04;;;;;;;30.58;16.48;;;11.90;99.90;;;;;;6124804;23;20093;-78
2022/11/14 14:24:38;;;;;;;28.90;17.08;;;11.60;99.90;;;;;;6100555;23;20013;-79
2022/11/14 14:27:29;;;;;;;29.40;16.77;;;11.40;99.90;;;;;;6124861;23;20014;-80
2022/11/14 14:29:57;;;;;;;29.38;16.50;;;11.20;99.90;;;;;;6126185;23;20246;-80
2022/11/14 14:32:23;;;;;;;28.77;16.98;;;11.10;99.90;;;;;;6124726;23;20013;-81
2022/11/14 14:38:37;;;;;;;26.75;16.85;;;11.00;99.90;;;;;;5989761;23;20049;-80
2022/11/14 14:41:38;;;;;;;30.65;17.08;;;10.80;99.90;;;;;;6124322;23;20017;-78
2022/11/14 14:44:05;;;;;;;30.33;16.63;;;10.70;99.90;;;;;;6140006;23;20053;-79
2022/11/14 14:46:32;;;;;;;28.05;16.80;;;10.60;99.90;;;;;;6131058;23;20006;-83
2022/11/14 14:49:01;;;;;;;28.35;17.20;;;10.50;99.90;;;;;;6076500;23;20455;-79
2022/11/14 14:51:33;;;;;;;28.15;16.95;;;10.30;99.90;;;;;;6126276;23;20077;-77
2022/11/14 14:53:58;;;;;;;29.50;16.85;;;10.20;99.90;;;;;;6125487;23;20014;-78
2022/11/14 14:56:25;;;;;;;29.80;18.23;;;10.10;99.90;;;;;;6124750;23;20010;-81
2022/11/14 14:58:50;;;;;;;27.88;17.23;;;9.90;99.90;;;;;;6149068;23;20452;-81
2022/11/14 15:01:19;;;;;;;28.80;16.50;;;9.90;99.90;;;;;;6124476;23;20042;-80
2022/11/14 15:03:54;;;;;;;26.60;16.65;;;9.80;99.90;;;;;;6124593;23;20348;-79
2022/11/14 15:06:33;;;;;;;28.92;17.55;;;9.70;99.90;;;;;;6124532;23;20049;-82
2022/11/14 15:09:17;;;;;;;30.73;17.23;;;9.70;99.90;;;;;;6124649;23;20018;-80
2022/11/14 15:11:46;;;;;;;31.23;17.52;;;9.60;99.90;;;;;;6124579;23;20436;-79
2022/11/14 15:14:15;;;;;;;29.88;16.65;;;9.60;99.90;;;;;;6124866;23;20025;-80
2022/11/14 15:16:43;;;;;;;27.70;16.55;;;9.60;99.90;;;;;;6124610;23;20018;-79
2022/11/14 15:19:14;;;;;;;28.15;15.77;;;9.50;99.90;;;;;;6124902;23;20093;-77
2022/11/14 15:21:39;;;;;;;27.98;17.00;;;9.50;99.90;;;;;;6100177;23;20404;-82
2022/11/14 15:24:18;;;;;;;28.27;16.92;;;9.50;99.90;;;;;;6124506;23;20014;-82
2022/11/14 15:26:46;;;;;;;28.80;16.67;;;9.40;99.90;;;;;;6124373;23;20440;-80
2022/11/14 15:29:14;;;;;;;25.65;15.85;;;9.40;99.90;;;;;;6126054;23;20041;-80
2022/11/14 15:31:45;;;;;;;25.95;15.85;;;9.40;99.90;;;;;;6124597;23;20014;-78
2022/11/14 15:34:26;;;;;;;26.25;15.32;;;9.30;99.90;;;;;;6100221;23;20022;-81
2022/11/14 15:37:13;;;;;;;28.13;15.68;;;9.30;99.90;;;;;;6100070;23;20344;-81
2022/11/14 15:39:40;;;;;;;23.38;15.23;;;9.30;99.90;;;;;;6100258;23;20014;-79
2022/11/14 15:42:17;;;;;;;25.20;15.70;;;9.30;99.90;;;;;;6124391;23;20021;-82
2022/11/14 15:44:45;;;;;;;22.85;14.88;;;9.20;99.90;;;;;;6126123;23;20050;-79
2022/11/14 15:47:17;;;;;;;27.23;16.02;;;9.20;99.90;;;;;;6124484;23;20045;-79
2022/11/14 15:49:55;;;;;;;22.50;14.68;;;9.20;99.90;;;;;;6124567;23;20437;-78
2022/11/14 15:52:32;;;;;;;27.10;15.98;;;9.20;99.90;;;;;;6124477;23;20006;-79
2022/11/14 15:54:58;;;;;;;20.08;14.15;;;9.20;99.90;;;;;;6127281;23;20014;-80
2022/11/14 15:57:24;;;;;;;21.85;13.95;;;9.20;99.90;;;;;;6127902;23;20334;-80
2022/11/14 15:59:49;;;;;;;20.35;14.30;;;9.20;99.90;;;;;;6126208;23;20006;-79
2022/11/14 16:02:18;;;;;;;20.67;13.93;;;9.20;99.90;;;;;;6126396;23;20453;-80
2022/11/14 16:04:44;;;;;;;21.92;14.70;;;9.20;99.90;;;;;;6102268;23;20348;-79
2022/11/14 16:07:11;;;;;;;22.45;14.73;;;9.20;99.90;;;;;;6126572;23;20418;-80
2022/11/14 16:09:37;;;;;;;21.75;14.63;;;9.20;99.90;;;;;;6102009;23;20016;-77
2022/11/14 16:12:03;;;;;;;22.55;15.60;;;9.20;99.90;;;;;;6126256;23;20085;-79
2022/11/14 16:14:28;;;;;;;23.95;15.77;;;9.20;99.90;;;;;;6126299;23;20021;-79
2022/11/14 16:16:54;;;;;;;21.73;15.23;;;9.20;99.90;;;;;;6128215;23;20306;-78
2022/11/14 16:19:20;;;;;;;24.10;16.27;;;9.20;99.90;;;;;;6127927;23;20363;-78
2022/11/14 16:21:47;;;;;;;22.83;14.88;;;9.20;99.90;;;;;;6125847;23;20045;-77
2022/11/14 16:24:16;;;;;;;23.95;15.38;;;9.20;99.90;;;;;;6126187;23;20018;-76
2022/11/14 16:26:42;;;;;;;23.20;15.18;;;9.20;99.90;;;;;;6101615;23;20460;-79
2022/11/14 16:29:08;;;;;;;22.75;14.48;;;9.20;99.90;;;;;;6126002;23;20022;-78
2022/11/14 16:31:34;;;;;;;23.73;14.80;;;9.20;99.90;;;;;;6125898;23;20045;-77
2022/11/14 16:33:59;;;;;;;22.58;14.25;;;9.20;99.90;;;;;;6101586;23;20013;-77
2022/11/14 16:36:25;;;;;;;23.55;14.50;;;9.10;99.90;;;;;;6101492;23;20025;-78
2022/11/14 16:38:50;;;;;;;21.63;14.13;;;9.10;99.90;;;;;;6125714;23;20022;-77
2022/11/14 16:41:17;;;;;;;21.77;14.80;;;9.10;99.90;;;;;;6125589;23;20018;-78
2022/11/14 16:43:42;;;;;;;20.35;13.23;;;9.10;99.90;;;;;;6125778;23;20018;-76
2022/11/14 16:46:10;;;;;;;20.27;13.52;;;9.10;99.90;;;;;;6127361;23;20021;-78
2022/11/14 16:48:35;;;;;;;22.98;13.77;;;9.10;99.90;;;;;;6127643;23;20014;-77
2022/11/14 16:51:02;;;;;;;20.70;13.32;;;9.10;99.90;;;;;;6125995;23;20010;-77
2022/11/14 16:53:29;;;;;;;19.88;13.00;;;9.10;99.90;;;;;;6125721;23;20018;-77
2022/11/14 16:55:55;;;;;;;21.75;13.52;;;9.10;99.90;;;;;;6127217;23;20012;-76
2022/11/14 16:58:21;;;;;;;27.02;12.88;;;9.10;99.90;;;;;;6127536;23;20021;-78
2022/11/14 17:00:47;;;;;;;20.65;13.73;;;9.10;99.90;;;;;;6127372;23;20065;-79
2022/11/14 17:03:13;;;;;;;22.55;13.57;;;9.10;99.90;;;;;;6125717;23;20459;-79
2022/11/14 17:05:43;;;;;;;21.92;13.15;;;9.00;99.90;;;;;;6125030;23;20014;-77
2022/11/14 17:08:09;;;;;;;20.70;13.18;;;9.00;99.90;;;;;;6101253;23;20440;-76
2022/11/14 17:10:40;;;;;;;21.60;13.10;;;9.00;99.90;;;;;;6125917;23;20072;-77
2022/11/14 17:13:05;;;;;;;23.35;14.27;;;9.00;99.90;;;;;;6101283;23;20448;-78
2022/11/14 17:15:31;;;;;;;20.60;12.93;;;9.00;99.90;;;;;;6125475;23;20075;-77